Time;durP1;ratioP1;P1;durP2;ratioP2;P2;SDS_P1;SDS_P2;PMS_P1;PMS_P2;Temp;Humidity;BMP_temperature;BMP_pressure;BME280_temperature;BME280_humidity;BME280_pressure;Samples;Min_cycle;Max_cycle;Signal;HPM_P1;HPM_P2
2023/10/14 00:01:26;;;;;;;18.35;6.43;;;22.30;51.10;;;;;;5039583;28;20556;-44
2023/10/14 00:03:56;;;;;;;16.77;5.28;;;22.30;51.20;;;;;;5039519;28;20516;-43
2023/10/14 00:06:23;;;;;;;18.73;5.25;;;22.40;51.20;;;;;;5039840;28;20060;-42
2023/10/14 00:08:55;;;;;;;19.88;5.88;;;22.40;50.90;;;;;;5040030;28;20053;-41
2023/10/14 00:11:23;;;;;;;19.85;5.82;;;22.30;50.60;;;;;;5041519;28;20056;-43
2023/10/14 00:13:52;;;;;;;13.68;5.72;;;22.30;50.70;;;;;;5041437;28;20060;-46
2023/10/14 00:16:29;;;;;;;17.13;5.28;;;22.30;50.60;;;;;;5041765;28;20068;-40
2023/10/14 00:19:03;;;;;;;17.92;5.88;;;22.40;51.10;;;;;;5040166;28;20053;-44
2023/10/14 00:21:33;;;;;;;20.33;5.20;;;22.30;50.50;;;;;;5031277;28;20053;-44
2023/10/14 00:24:02;;;;;;;15.40;5.22;;;22.40;50.50;;;;;;5039284;28;20520;-44
2023/10/14 00:26:30;;;;;;;16.73;5.68;;;22.40;50.50;;;;;;5030677;28;20056;-42
2023/10/14 00:29:16;;;;;;;16.63;5.85;;;22.30;50.40;;;;;;5041006;28;20430;-45
2023/10/14 00:31:43;;;;;;;24.67;5.70;;;22.40;50.50;;;;;;5039697;28;20044;-41
2023/10/14 00:34:14;;;;;;;14.95;5.03;;;22.40;50.50;;;;;;5038673;28;20045;-40
2023/10/14 00:36:41;;;;;;;27.48;5.50;;;22.40;50.50;;;;;;5039787;28;20943;-39
2023/10/14 00:39:13;;;;;;;23.52;5.65;;;22.40;50.50;;;;;;5040460;28;20052;-41
2023/10/14 00:41:42;;;;;;;16.85;5.60;;;22.40;50.50;;;;;;5039732;28;20061;-49
2023/10/14 00:44:09;;;;;;;19.05;5.07;;;22.40;50.50;;;;;;5038737;28;20119;-41
2023/10/14 00:46:42;;;;;;;21.73;5.35;;;22.40;50.60;;;;;;5039838;28;20421;-39
2023/10/14 00:49:12;;;;;;;15.10;4.95;;;22.40;50.50;;;;;;5039710;28;20356;-49
2023/10/14 00:51:43;;;;;;;19.95;4.93;;;22.40;50.50;;;;;;5039511;28;20068;-42
2023/10/14 00:54:12;;;;;;;15.50;5.78;;;22.40;50.40;;;;;;5040104;28;20048;-45
2023/10/14 00:56:41;;;;;;;15.38;5.45;;;22.40;50.30;;;;;;5040207;28;20048;-47
2023/10/14 00:59:10;;;;;;;13.65;4.47;;;22.40;50.30;;;;;;5039564;28;20049;-49
2023/10/14 01:01:55;;;;;;;23.23;5.93;;;22.40;50.30;;;;;;5037235;28;20068;-45
2023/10/14 01:04:31;;;;;;;19.45;5.20;;;22.40;50.20;;;;;;5039911;28;20056;-40
2023/10/14 01:07:04;;;;;;;15.55;5.00;;;22.40;50.10;;;;;;5039990;28;20057;-50
2023/10/14 01:09:33;;;;;;;16.17;4.45;;;22.40;50.10;;;;;;5040114;28;20049;-42
2023/10/14 01:12:11;;;;;;;13.48;4.70;;;22.40;49.90;;;;;;5039082;28;20052;-44
2023/10/14 01:14:41;;;;;;;15.13;4.22;;;22.40;49.90;;;;;;5031558;28;20061;-38
2023/10/14 01:17:09;;;;;;;13.57;4.03;;;22.40;50.00;;;;;;5038866;28;21032;-40
2023/10/14 01:19:38;;;;;;;9.18;3.42;;;22.40;49.80;;;;;;5038691;28;20056;-39
2023/10/14 01:22:12;;;;;;;13.30;4.30;;;22.40;49.80;;;;;;5039810;28;20049;-44
2023/10/14 01:24:41;;;;;;;;;;;22.40;49.80;;;;;;5039931;28;20493;-47
2023/10/14 01:27:08;;;;;;;12.20;3.92;;;22.40;49.90;;;;;;5040022;28;19925;-46
2023/10/14 01:29:40;;;;;;;8.20;3.35;;;22.50;49.60;;;;;;5038463;28;20056;-43
2023/10/14 01:32:39;;;;;;;10.88;3.40;;;22.40;49.60;;;;;;5038681;28;20052;-46
2023/10/14 01:35:19;;;;;;;12.02;3.40;;;22.40;49.50;;;;;;5039446;28;20045;-43
2023/10/14 01:37:49;;;;;;;7.03;2.80;;;22.40;49.60;;;;;;5038981;28;20478;-47
2023/10/14 01:40:24;;;;;;;11.00;3.33;;;22.40;49.60;;;;;;5040476;28;20064;-44
2023/10/14 01:42:56;;;;;;;8.18;3.25;;;22.40;49.70;;;;;;5040141;28;20055;-41
2023/10/14 01:45:27;;;;;;;8.48;2.85;;;22.40;50.10;;;;;;5039350;28;20064;-43
2023/10/14 01:48:11;;;;;;;10.20;3.25;;;22.40;50.50;;;;;;5039378;28;20057;-45
2023/10/14 01:50:44;;;;;;;12.63;3.63;;;22.40;50.70;;;;;;5032001;28;20417;-45
2023/10/14 01:53:17;;;;;;;15.50;3.60;;;22.40;51.10;;;;;;5037030;28;20059;-45
2023/10/14 01:55:45;;;;;;;12.80;3.25;;;22.40;51.40;;;;;;5040930;28;20048;-46
2023/10/14 01:58:21;;;;;;;8.57;3.38;;;22.40;51.90;;;;;;5041029;28;20060;-49
2023/10/14 02:00:52;;;;;;;12.45;2.92;;;22.30;51.60;;;;;;5038704;28;20061;-48
2023/10/14 02:03:21;;;;;;;12.13;3.28;;;22.30;51.50;;;;;;5038624;28;20053;-49
2023/10/14 02:05:51;;;;;;;10.95;2.90;;;22.30;51.40;;;;;;5038835;28;20433;-48
2023/10/14 02:08:22;;;;;;;10.60;3.40;;;22.30;51.70;;;;;;5038647;28;20056;-43
2023/10/14 02:10:50;;;;;;;6.18;2.28;;;22.20;52.20;;;;;;5038283;28;20049;-43
2023/10/14 02:13:18;;;;;;;10.38;2.60;;;22.10;52.30;;;;;;5038889;28;20056;-50
2023/10/14 02:15:47;;;;;;;12.90;2.90;;;22.10;52.50;;;;;;5039230;28;20049;-47
2023/10/14 02:18:20;;;;;;;9.13;2.72;;;22.00;52.70;;;;;;5039319;28;20044;-40
2023/10/14 02:23:44;;;;;;;12.18;2.60;;;21.90;52.40;;;;;;5032568;28;20424;-48
2023/10/14 02:26:22;;;;;;;5.57;2.15;;;21.90;52.50;;;;;;5041466;28;20041;-39
2023/10/14 02:28:52;;;;;;;8.45;1.75;;;21.90;52.60;;;;;;5042367;28;20067;-38
2023/10/14 02:31:28;;;;;;;7.15;1.80;;;21.80;52.50;;;;;;5043929;28;20413;-43
2023/10/14 02:33:56;;;;;;;5.85;1.70;;;21.80;52.60;;;;;;5044317;28;20405;-39
2023/10/14 02:36:28;;;;;;;5.97;1.85;;;21.70;52.70;;;;;;5041850;28;20056;-46
2023/10/14 02:38:58;;;;;;;5.53;1.60;;;21.70;53.00;;;;;;5042627;28;20056;-43
2023/10/14 02:41:27;;;;;;;10.30;1.95;;;21.60;53.10;;;;;;5042060;28;20049;-44
2023/10/14 02:44:02;;;;;;;7.50;1.83;;;21.60;53.30;;;;;;5042768;28;20124;-41
2023/10/14 02:46:30;;;;;;;6.65;1.58;;;21.50;53.30;;;;;;5042119;28;20509;-41
2023/10/14 02:49:06;;;;;;;4.93;1.45;;;21.60;53.50;;;;;;5041595;28;20064;-43
2023/10/14 02:51:42;;;;;;;5.75;1.20;;;21.50;53.70;;;;;;5033902;28;20056;-48
2023/10/14 02:54:26;;;;;;;6.65;1.52;;;21.50;54.10;;;;;;5042147;28;20063;-42
2023/10/14 02:56:57;;;;;;;3.25;1.40;;;21.40;54.30;;;;;;5041262;28;20044;-40
2023/10/14 02:59:36;;;;;;;6.10;1.60;;;21.40;54.30;;;;;;5042556;28;20068;-44
2023/10/14 03:02:14;;;;;;;7.10;1.15;;;21.30;54.40;;;;;;5041556;28;20057;-44
2023/10/14 03:04:48;;;;;;;4.80;1.35;;;21.30;54.60;;;;;;5042122;28;20068;-44
2023/10/14 03:07:23;;;;;;;;;;;21.30;54.60;;;;;;5044360;28;20068;-51
2023/10/14 03:09:52;;;;;;;3.00;0.93;;;21.30;54.30;;;;;;5041979;28;19921;-50
2023/10/14 03:12:21;;;;;;;2.83;1.30;;;21.30;54.60;;;;;;5041491;28;20056;-46
2023/10/14 03:14:49;;;;;;;4.20;1.23;;;21.20;54.70;;;;;;5041543;28;20508;-45
2023/10/14 03:17:24;;;;;;;6.65;1.65;;;21.20;54.90;;;;;;5041060;28;20040;-46
2023/10/14 03:19:56;;;;;;;11.77;2.00;;;21.10;55.90;;;;;;5041442;28;20425;-53
2023/10/14 03:22:25;;;;;;;6.85;1.00;;;21.10;56.40;;;;;;5041177;28;20063;-55
2023/10/14 03:25:04;;;;;;;2.15;0.60;;;20.90;57.10;;;;;;5042539;28;20060;-51
2023/10/14 03:27:32;;;;;;;4.18;0.45;;;20.70;56.80;;;;;;5033973;28;20057;-51
2023/10/14 03:30:00;;;;;;;0.47;0.20;;;20.40;57.40;;;;;;5041951;28;20067;-52
2023/10/14 03:32:33;;;;;;;0.20;0.10;;;20.00;58.00;;;;;;5038688;28;20429;-50
2023/10/14 03:35:11;;;;;;;0.88;0.30;;;19.60;58.10;;;;;;5040737;28;20049;-54
2023/10/14 03:37:44;;;;;;;1.85;0.20;;;19.20;58.40;;;;;;5041094;28;20413;-51
2023/10/14 03:43:08;;;;;;;3.10;0.20;;;18.60;59.80;;;;;;5046436;28;20083;-48
2023/10/14 03:45:45;;;;;;;0.20;0.15;;;18.30;60.60;;;;;;5034064;28;20048;-50
2023/10/14 03:48:13;;;;;;;0.30;0.17;;;18.10;61.50;;;;;;5035103;28;20124;-53
2023/10/14 03:50:40;;;;;;;0.50;0.15;;;17.90;62.30;;;;;;5040564;28;20079;-50
2023/10/14 03:53:07;;;;;;;0.40;0.13;;;17.70;63.30;;;;;;5041266;28;20420;-48
2023/10/14 03:55:38;;;;;;;1.73;0.38;;;17.50;64.00;;;;;;5041519;28;20457;-51
2023/10/14 03:58:05;;;;;;;0.70;0.30;;;17.40;64.90;;;;;;5041516;28;20060;-48
2023/10/14 04:00:37;;;;;;;0.95;0.22;;;17.30;65.70;;;;;;5039630;28;20057;-49
2023/10/14 04:03:11;;;;;;;0.82;0.20;;;17.20;66.50;;;;;;5040297;28;20052;-50
2023/10/14 04:05:41;;;;;;;0.10;0.10;;;17.10;67.40;;;;;;5038302;28;20057;-46
2023/10/14 04:08:08;;;;;;;0.32;0.20;;;17.10;68.10;;;;;;5039314;28;20060;-49
2023/10/14 04:10:44;;;;;;;0.40;0.20;;;17.00;68.80;;;;;;5041008;28;20060;-46
2023/10/14 04:13:14;;;;;;;4.28;0.20;;;16.90;69.60;;;;;;5039020;28;20099;-51
2023/10/14 04:15:49;;;;;;;0.73;0.22;;;16.80;69.90;;;;;;5039628;28;20056;-48
2023/10/14 04:18:24;;;;;;;0.32;0.32;;;16.80;70.20;;;;;;5035730;28;20045;-51
2023/10/14 04:21:11;;;;;;;1.17;0.60;;;16.80;71.10;;;;;;5039204;28;20050;-55
2023/10/14 04:23:55;;;;;;;0.70;0.70;;;16.70;71.50;;;;;;5028945;28;20057;-55
2023/10/14 04:26:24;;;;;;;0.93;0.80;;;16.70;72.50;;;;;;5037309;28;20064;-55
2023/10/14 04:28:53;;;;;;;0.52;0.50;;;16.70;72.50;;;;;;5039481;28;20056;-54
2023/10/14 04:31:26;;;;;;;0.55;0.55;;;16.60;72.80;;;;;;5040218;28;20048;-49
2023/10/14 04:33:54;;;;;;;0.50;0.50;;;16.70;73.30;;;;;;5040656;28;20068;-61
2023/10/14 04:36:37;;;;;;;0.60;0.40;;;16.60;73.50;;;;;;5041451;28;20061;-60
2023/10/14 04:39:07;;;;;;;0.32;0.30;;;16.60;73.00;;;;;;5042618;28;20040;-56
2023/10/14 04:41:45;;;;;;;3.30;0.30;;;16.50;72.20;;;;;;5039698;28;20045;-57
2023/10/14 04:44:13;;;;;;;1.25;0.20;;;16.50;71.50;;;;;;5041420;28;20056;-57
2023/10/14 04:46:54;;;;;;;1.58;0.40;;;16.40;71.30;;;;;;5042235;28;20060;-53
2023/10/14 04:49:35;;;;;;;4.65;0.75;;;16.30;71.40;;;;;;5042099;28;20412;-55
2023/10/14 04:52:05;;;;;;;4.88;1.17;;;16.20;71.00;;;;;;5040560;28;20452;-53
2023/10/14 04:54:37;;;;;;;5.85;1.40;;;16.00;69.30;;;;;;5041259;28;20057;-61
2023/10/14 05:00:19;;;;;;;9.88;1.80;;;15.70;68.30;;;;;;5082810;27;20991;-55
2023/10/14 05:02:47;;;;;;;12.77;2.10;;;15.50;67.70;;;;;;5080570;28;20048;-57
2023/10/14 05:05:19;;;;;;;14.73;2.20;;;15.30;67.40;;;;;;5081298;28;20059;-52
2023/10/14 05:07:46;;;;;;;16.20;2.72;;;15.20;67.90;;;;;;5080254;28;20400;-59
2023/10/14 05:10:15;;;;;;;17.75;2.38;;;15.00;67.90;;;;;;5081839;28;20052;-56
2023/10/14 05:12:51;;;;;;;17.20;2.33;;;14.90;68.50;;;;;;5080707;28;20067;-57
2023/10/14 05:15:21;;;;;;;12.48;2.00;;;14.80;68.90;;;;;;5080973;28;20047;-59
2023/10/14 05:17:50;;;;;;;15.40;2.15;;;14.60;69.00;;;;;;5079707;28;20060;-59
2023/10/14 05:20:27;;;;;;;20.15;3.05;;;14.60;69.40;;;;;;5079607;28;20059;-57
2023/10/14 05:22:56;;;;;;;13.98;2.65;;;14.50;69.30;;;;;;5080026;28;20059;-57
2023/10/14 05:25:30;;;;;;;22.08;3.38;;;14.40;69.90;;;;;;5079845;28;20064;-56
2023/10/14 05:27:58;;;;;;;;;;;14.40;70.30;;;;;;5082628;28;20105;-48
2023/10/14 05:30:34;;;;;;;15.35;2.85;;;14.40;69.80;;;;;;5081522;28;19924;-51
2023/10/14 05:33:06;;;;;;;14.40;3.08;;;14.20;70.10;;;;;;5079806;28;20060;-51
2023/10/14 05:35:38;;;;;;;14.15;2.90;;;14.20;70.30;;;;;;5079501;28;20044;-51
2023/10/14 05:38:09;;;;;;;19.25;2.90;;;14.20;71.00;;;;;;5079596;28;20382;-56
2023/10/14 05:40:38;;;;;;;26.88;2.42;;;14.10;71.00;;;;;;5079675;28;20060;-56
2023/10/14 05:43:06;;;;;;;20.13;2.78;;;14.20;71.50;;;;;;5079285;28;20409;-55
2023/10/14 05:45:36;;;;;;;14.48;2.80;;;14.20;71.90;;;;;;5078737;28;20053;-50
2023/10/14 05:48:04;;;;;;;16.05;2.95;;;14.20;72.10;;;;;;5079432;28;20404;-54
2023/10/14 05:50:32;;;;;;;19.60;2.22;;;14.20;72.50;;;;;;5079499;28;20055;-52
2023/10/14 05:53:01;;;;;;;14.23;2.60;;;14.20;72.70;;;;;;5079240;28;20082;-57
2023/10/14 05:55:30;;;;;;;23.85;2.90;;;14.20;72.80;;;;;;5079786;28;20056;-54
2023/10/14 05:58:00;;;;;;;23.98;3.03;;;14.20;73.00;;;;;;5080071;28;20555;-51
2023/10/14 06:00:27;;;;;;;18.95;2.38;;;14.20;72.90;;;;;;5080648;28;19925;-49
2023/10/14 06:02:58;;;;;;;16.48;2.75;;;14.30;73.00;;;;;;5079840;28;20059;-51
2023/10/14 06:05:29;;;;;;;14.75;2.92;;;14.30;73.00;;;;;;5079957;28;20404;-53
2023/10/14 06:08:05;;;;;;;22.75;2.40;;;14.30;73.10;;;;;;5078550;28;20048;-53
2023/10/14 06:10:36;;;;;;;12.60;2.78;;;14.30;73.10;;;;;;5071159;28;20063;-51
2023/10/14 06:13:05;;;;;;;20.52;2.50;;;14.40;73.30;;;;;;5066637;28;20061;-52
2023/10/14 06:15:37;;;;;;;23.75;2.95;;;14.40;73.20;;;;;;5065993;28;20496;-51
2023/10/14 06:18:08;;;;;;;22.45;2.75;;;14.40;73.30;;;;;;5065692;28;20511;-54
2023/10/14 06:20:35;;;;;;;19.00;2.20;;;14.40;73.20;;;;;;5065711;28;20423;-47
2023/10/14 06:23:02;;;;;;;13.90;2.22;;;14.40;73.00;;;;;;5066515;28;20064;-53
2023/10/14 06:25:30;;;;;;;10.45;2.25;;;14.40;72.80;;;;;;5065661;28;20434;-55
2023/10/14 06:27:58;;;;;;;18.42;2.75;;;14.40;72.60;;;;;;5065537;28;20389;-49
2023/10/14 06:30:26;;;;;;;19.70;3.08;;;14.40;72.30;;;;;;5065179;28;20408;-53
2023/10/14 06:32:58;;;;;;;19.90;2.80;;;14.40;72.00;;;;;;5064279;28;20053;-52
2023/10/14 06:35:27;;;;;;;26.27;2.70;;;14.40;72.10;;;;;;5065047;28;20511;-46
2023/10/14 06:37:55;;;;;;;11.13;2.00;;;14.40;72.30;;;;;;5065710;28;20492;-46
2023/10/14 06:40:22;;;;;;;10.23;2.22;;;14.40;72.50;;;;;;5064678;28;20048;-46
2023/10/14 06:42:49;;;;;;;15.68;2.58;;;14.40;72.60;;;;;;5064908;28;20492;-48
2023/10/14 06:45:21;;;;;;;13.15;2.35;;;14.40;72.50;;;;;;5065553;28;20063;-49
2023/10/14 06:47:50;;;;;;;13.52;2.90;;;14.50;72.60;;;;;;5066080;28;20052;-53
2023/10/14 06:50:23;;;;;;;17.30;2.90;;;14.50;72.70;;;;;;5065595;28;20044;-47
2023/10/14 06:52:58;;;;;;;21.35;2.53;;;14.50;72.40;;;;;;5064500;28;20060;-50
2023/10/14 06:55:26;;;;;;;15.25;2.63;;;14.50;72.20;;;;;;5066167;28;20060;-53
2023/10/14 06:57:55;;;;;;;15.65;2.60;;;14.50;71.90;;;;;;5065225;28;20060;-49
2023/10/14 07:00:29;;;;;;;16.83;2.67;;;14.50;71.60;;;;;;5064811;28;20056;-53
2023/10/14 07:02:59;;;;;;;24.00;2.75;;;14.40;71.60;;;;;;5065165;28;20056;-46
2023/10/14 07:05:29;;;;;;;21.75;3.00;;;14.40;71.20;;;;;;5065107;28;20415;-48
2023/10/14 07:07:58;;;;;;;15.73;2.15;;;14.40;71.10;;;;;;5064628;28;20056;-52
2023/10/14 07:10:32;;;;;;;18.73;2.28;;;14.40;70.90;;;;;;5064939;28;20056;-53
2023/10/14 07:13:00;;;;;;;12.33;2.83;;;14.40;71.10;;;;;;5066016;28;20053;-46
2023/10/14 07:15:29;;;;;;;10.45;2.47;;;14.40;71.20;;;;;;5065179;28;20060;-47
2023/10/14 07:17:58;;;;;;;17.40;2.50;;;14.40;71.20;;;;;;5064774;28;20059;-49
2023/10/14 07:20:29;;;;;;;14.98;2.53;;;14.40;71.20;;;;;;5064292;28;20062;-47
2023/10/14 07:22:58;;;;;;;20.88;3.30;;;14.40;71.20;;;;;;5063912;28;20052;-47
2023/10/14 07:25:26;;;;;;;18.42;2.63;;;14.40;71.20;;;;;;5064078;28;20063;-48
2023/10/14 07:27:53;;;;;;;17.27;2.30;;;14.40;70.70;;;;;;5066253;28;20056;-50
2023/10/14 07:30:26;;;;;;;21.40;2.60;;;14.40;70.90;;;;;;5064705;28;20052;-50
2023/10/14 07:32:53;;;;;;;19.67;2.43;;;14.50;71.20;;;;;;5063583;28;20048;-51
2023/10/14 07:35:21;;;;;;;23.08;2.47;;;14.50;71.20;;;;;;5063831;28;20044;-52
2023/10/14 07:37:50;;;;;;;15.95;2.60;;;14.50;71.20;;;;;;5064781;28;20063;-49
2023/10/14 07:40:24;;;;;;;16.98;2.70;;;14.50;70.90;;;;;;5065991;28;20060;-48
2023/10/14 07:42:53;;;;;;;15.88;3.17;;;14.60;71.20;;;;;;5063538;28;20053;-48
2023/10/14 07:45:21;;;;;;;21.00;3.22;;;14.60;71.30;;;;;;5065249;28;20517;-46
2023/10/14 07:47:49;;;;;;;18.17;2.50;;;14.60;71.20;;;;;;5063764;28;20048;-48
2023/10/14 07:50:15;;;;;;;15.63;2.65;;;14.70;71.20;;;;;;5063596;28;20063;-56
2023/10/14 07:52:43;;;;;;;13.10;2.33;;;14.70;70.80;;;;;;5063998;28;20409;-55
2023/10/14 07:55:15;;;;;;;18.92;3.15;;;14.70;69.90;;;;;;5065313;28;20059;-57
2023/10/14 07:57:46;;;;;;;16.80;2.60;;;14.70;70.00;;;;;;5064702;28;20067;-57
2023/10/14 08:00:14;;;;;;;14.15;2.35;;;14.80;70.00;;;;;;5064092;28;20507;-53
2023/10/14 08:02:42;;;;;;;15.60;3.05;;;14.80;69.90;;;;;;5064492;28;20052;-57
2023/10/14 08:05:11;;;;;;;12.18;2.97;;;14.80;69.70;;;;;;5064005;28;20052;-50
2023/10/14 08:07:41;;;;;;;17.35;2.75;;;14.90;69.70;;;;;;5066133;28;20044;-57
2023/10/14 08:10:19;;;;;;;19.83;2.90;;;14.90;68.90;;;;;;5065182;28;20051;-59
2023/10/14 08:12:50;;;;;;;14.25;2.53;;;14.90;68.70;;;;;;5066812;28;20056;-56
2023/10/14 08:15:18;;;;;;;17.25;2.83;;;14.90;68.20;;;;;;5064484;28;20048;-56
2023/10/14 08:17:48;;;;;;;20.80;3.13;;;15.00;68.10;;;;;;5064396;28;20061;-57
2023/10/14 08:20:19;;;;;;;14.68;3.03;;;15.00;67.80;;;;;;5066099;28;20373;-57
2023/10/14 08:22:48;;;;;;;19.92;2.63;;;15.00;67.40;;;;;;5065346;28;20055;-55
2023/10/14 08:25:18;;;;;;;14.70;2.92;;;15.00;66.80;;;;;;5064961;28;20059;-55
2023/10/14 08:27:50;;;;;;;15.13;3.00;;;15.00;65.90;;;;;;5064108;28;20048;-56
2023/10/14 08:30:17;;;;;;;14.05;2.45;;;15.10;65.90;;;;;;5065535;28;20052;-55
2023/10/14 08:32:46;;;;;;;17.23;2.55;;;15.10;66.10;;;;;;5063567;28;20083;-50
2023/10/14 08:35:17;;;;;;;17.48;2.38;;;15.10;66.30;;;;;;5064224;28;20051;-54
2023/10/14 08:37:51;;;;;;;12.80;2.40;;;15.10;66.10;;;;;;5064263;28;20056;-55
2023/10/14 08:40:20;;;;;;;21.23;2.83;;;15.10;66.00;;;;;;5064385;28;20053;-53
2023/10/14 08:42:51;;;;;;;15.38;2.90;;;15.10;64.90;;;;;;5064478;28;20060;-56
2023/10/14 08:45:20;;;;;;;16.08;2.63;;;15.20;65.50;;;;;;5063958;28;20044;-52
2023/10/14 08:47:52;;;;;;;19.73;2.60;;;15.20;65.10;;;;;;5063752;28;20057;-55
2023/10/14 08:50:23;;;;;;;16.63;2.53;;;15.20;64.70;;;;;;5063437;28;20055;-55
2023/10/14 08:52:53;;;;;;;17.35;2.78;;;15.20;64.30;;;;;;5063928;28;20494;-56
2023/10/14 08:55:21;;;;;;;15.55;2.83;;;15.30;63.80;;;;;;5063954;28;20052;-55
2023/10/14 08:57:51;;;;;;;16.30;2.15;;;15.30;63.80;;;;;;5062843;28;20048;-60
2023/10/14 09:00:20;;;;;;;20.95;3.13;;;15.30;64.10;;;;;;5063951;28;20049;-47
2023/10/14 09:02:50;;;;;;;13.98;3.00;;;15.30;62.40;;;;;;5062818;28;20044;-48
2023/10/14 09:05:18;;;;;;;16.80;3.65;;;15.30;62.40;;;;;;5063799;28;20049;-49
2023/10/14 09:07:48;;;;;;;17.48;2.85;;;15.30;62.40;;;;;;5062601;28;20064;-49
2023/10/14 09:10:18;;;;;;;16.45;3.17;;;15.30;61.80;;;;;;5063271;28;20078;-49
2023/10/14 09:12:57;;;;;;;14.23;2.63;;;15.30;61.60;;;;;;5064180;28;20052;-48
2023/10/14 09:15:28;;;;;;;13.90;2.40;;;15.20;61.30;;;;;;5063812;28;20062;-46
2023/10/14 09:17:56;;;;;;;15.40;3.83;;;15.20;61.10;;;;;;5062318;28;20088;-57
2023/10/14 09:20:29;;;;;;;19.33;2.40;;;15.20;60.70;;;;;;5062928;28;20515;-52
2023/10/14 09:23:19;;;;;;;20.30;3.70;;;15.20;61.30;;;;;;5064945;28;20048;-48
2023/10/14 09:25:50;;;;;;;16.02;2.55;;;15.20;60.70;;;;;;5063413;28;20408;-47
2023/10/14 09:28:20;;;;;;;15.20;2.63;;;15.20;61.10;;;;;;5064644;28;20047;-53
2023/10/14 09:30:50;;;;;;;14.27;2.47;;;15.20;61.00;;;;;;5062453;28;20053;-51
2023/10/14 09:33:21;;;;;;;17.60;2.88;;;15.10;60.70;;;;;;5062069;28;20524;-48
2023/10/14 09:35:50;;;;;;;16.13;2.80;;;15.20;60.50;;;;;;5064139;28;20089;-48
2023/10/14 09:38:19;;;;;;;18.73;3.05;;;15.20;60.20;;;;;;5064387;28;20391;-49
2023/10/14 09:40:53;;;;;;;12.52;2.60;;;15.10;59.50;;;;;;5062627;28;20060;-46
2023/10/14 09:43:24;;;;;;;12.27;2.53;;;15.10;59.50;;;;;;5064710;28;20063;-49
2023/10/14 09:45:55;;;;;;;14.82;3.15;;;15.10;59.30;;;;;;5065236;28;20059;-54
2023/10/14 09:48:25;;;;;;;10.63;2.28;;;15.00;59.10;;;;;;5067127;28;20048;-46
2023/10/14 09:50:54;;;;;;;11.30;2.05;;;15.00;59.50;;;;;;5066573;28;20511;-46
2023/10/14 09:53:26;;;;;;;14.13;2.97;;;15.00;59.60;;;;;;5066101;28;20400;-49
2023/10/14 09:55:55;;;;;;;17.83;2.60;;;15.00;59.70;;;;;;5066480;28;20048;-51
2023/10/14 09:58:26;;;;;;;9.95;2.35;;;15.00;59.90;;;;;;5066867;28;20056;-50
2023/10/14 10:00:54;;;;;;;13.65;2.42;;;15.00;59.10;;;;;;5066504;28;20079;-49
2023/10/14 10:03:23;;;;;;;15.38;2.63;;;15.00;58.90;;;;;;5065637;28;20067;-45
2023/10/14 10:06:10;;;;;;;9.07;2.58;;;15.00;58.80;;;;;;5067021;28;20053;-48
2023/10/14 10:09:17;;;;;;;13.18;2.35;;;15.00;58.90;;;;;;5066117;28;20480;-53
2023/10/14 10:11:46;;;;;;;11.80;2.30;;;15.10;58.70;;;;;;5060364;28;20504;-56
2023/10/14 10:14:18;;;;;;;18.35;2.97;;;15.10;58.60;;;;;;5066510;28;20496;-53
2023/10/14 10:16:52;;;;;;;21.95;3.88;;;15.10;58.70;;;;;;5066743;28;20060;-54
2023/10/14 10:19:21;;;;;;;17.73;3.20;;;15.10;58.90;;;;;;5066843;28;20417;-44
2023/10/14 10:22:13;;;;;;;20.85;3.13;;;15.20;58.70;;;;;;5066770;28;20087;-55
2023/10/14 10:24:43;;;;;;;18.00;3.28;;;15.20;58.80;;;;;;5066022;28;20047;-60
2023/10/14 10:27:11;;;;;;;11.52;2.33;;;15.20;58.20;;;;;;5065834;28;20524;-57
2023/10/14 10:29:46;;;;;;;20.38;2.60;;;15.20;58.30;;;;;;5065501;28;20044;-56
2023/10/14 10:32:19;;;;;;;12.60;2.70;;;15.30;58.20;;;;;;5065475;28;20060;-54
2023/10/14 10:35:10;;;;;;;16.88;2.45;;;15.30;57.80;;;;;;5066330;28;20079;-52
2023/10/14 10:37:40;;;;;;;13.40;2.35;;;15.40;58.00;;;;;;5065839;28;21120;-56
2023/10/14 10:40:10;;;;;;;20.33;2.78;;;15.40;57.80;;;;;;5066326;28;20048;-55
2023/10/14 10:42:38;;;;;;;17.55;3.03;;;15.40;57.70;;;;;;5067744;28;20114;-56
2023/10/14 10:45:10;;;;;;;12.38;2.90;;;15.50;57.40;;;;;;5067667;28;20420;-57
2023/10/14 10:47:51;;;;;;;12.63;2.30;;;15.50;56.90;;;;;;5065834;28;20114;-61
2023/10/14 10:50:19;;;;;;;10.27;2.15;;;15.50;56.30;;;;;;5065430;28;20048;-55
2023/10/14 10:52:55;;;;;;;12.32;2.40;;;15.50;56.50;;;;;;5066513;28;20044;-54
2023/10/14 10:55:24;;;;;;;10.10;2.15;;;15.60;56.00;;;;;;5066192;28;20629;-55
2023/10/14 10:58:01;;;;;;;13.77;2.42;;;15.60;56.40;;;;;;5067758;28;20048;-51
2023/10/14 11:00:31;;;;;;;11.48;2.50;;;15.70;56.00;;;;;;5066883;28;20416;-54
2023/10/14 11:02:59;;;;;;;13.18;2.35;;;15.70;55.80;;;;;;5065241;28;20519;-52
2023/10/14 11:05:26;;;;;;;9.70;2.28;;;15.80;55.90;;;;;;5065299;28;20067;-62
2023/10/14 11:07:54;;;;;;;17.60;1.98;;;15.90;55.80;;;;;;5066304;28;20060;-56
2023/10/14 11:10:25;;;;;;;16.83;2.67;;;16.00;56.10;;;;;;5065971;28;20060;-51
2023/10/14 11:12:54;;;;;;;11.85;2.30;;;16.00;55.30;;;;;;5065165;28;20055;-48
2023/10/14 11:15:21;;;;;;;10.43;2.55;;;16.10;55.10;;;;;;5064550;28;20060;-54
2023/10/14 11:17:56;;;;;;;9.60;3.38;;;16.20;54.80;;;;;;5065131;28;20052;-61
2023/10/14 11:20:26;;;;;;;10.95;2.53;;;16.20;54.00;;;;;;5065688;28;20059;-49
2023/10/14 11:22:55;;;;;;;10.50;2.20;;;16.20;54.00;;;;;;5065897;28;20415;-49
2023/10/14 11:25:22;;;;;;;11.25;2.50;;;16.20;54.30;;;;;;5066062;28;20408;-49
2023/10/14 11:27:50;;;;;;;17.65;2.40;;;16.20;54.30;;;;;;5066458;28;20048;-49
2023/10/14 11:30:18;;;;;;;8.13;1.90;;;16.20;53.30;;;;;;5065349;28;20127;-49
2023/10/14 11:32:47;;;;;;;13.13;2.00;;;16.20;53.80;;;;;;5065329;28;20048;-54
2023/10/14 11:35:21;;;;;;;19.55;2.60;;;16.20;52.80;;;;;;5065116;28;20052;-49
2023/10/14 11:37:52;;;;;;;16.50;2.42;;;16.30;52.50;;;;;;5064574;28;20052;-58
2023/10/14 11:40:20;;;;;;;15.45;3.35;;;16.20;52.80;;;;;;5064809;28;20056;-54
2023/10/14 11:42:48;;;;;;;12.93;2.28;;;16.20;52.10;;;;;;5066589;28;20123;-52
2023/10/14 11:45:17;;;;;;;11.48;2.92;;;16.20;52.40;;;;;;5063525;28;20052;-54
2023/10/14 11:47:45;;;;;;;17.83;3.17;;;16.20;52.70;;;;;;5065906;28;20067;-49
2023/10/14 11:50:12;;;;;;;18.90;3.47;;;16.30;53.20;;;;;;5063826;28;20052;-50
2023/10/14 11:52:43;;;;;;;12.80;2.63;;;16.30;51.90;;;;;;5066190;28;20059;-52
2023/10/14 11:55:14;;;;;;;13.15;2.40;;;16.30;52.00;;;;;;5065697;28;20048;-48
2023/10/14 11:57:43;;;;;;;11.15;2.65;;;16.40;52.70;;;;;;5064659;28;20570;-49
2023/10/14 12:00:16;;;;;;;10.30;2.00;;;16.50;53.10;;;;;;5061672;28;20063;-52
2023/10/14 12:02:45;;;;;;;11.23;2.25;;;16.60;52.70;;;;;;5064067;28;20048;-53
2023/10/14 12:05:13;;;;;;;11.38;2.33;;;16.60;52.10;;;;;;5062477;28;20052;-47
2023/10/14 12:07:42;;;;;;;12.00;1.83;;;16.70;52.10;;;;;;5062598;28;20056;-50
2023/10/14 12:10:10;;;;;;;10.32;2.40;;;16.80;52.20;;;;;;5064103;28;20071;-49
2023/10/14 12:12:39;;;;;;;12.93;2.03;;;16.80;50.90;;;;;;5062920;28;20052;-55
2023/10/14 12:15:07;;;;;;;9.60;2.03;;;16.80;50.60;;;;;;5063284;28;20056;-49
2023/10/14 12:17:35;;;;;;;11.23;2.30;;;16.90;50.20;;;;;;5062860;28;20049;-54
2023/10/14 12:20:06;;;;;;;15.98;2.65;;;16.90;49.70;;;;;;5061274;28;20063;-49
2023/10/14 12:22:33;;;;;;;7.43;1.95;;;16.90;48.90;;;;;;5062404;28;20048;-52
2023/10/14 12:25:02;;;;;;;10.70;1.98;;;16.90;48.80;;;;;;5062971;28;20488;-48
2023/10/14 12:27:30;;;;;;;10.07;2.63;;;16.90;48.50;;;;;;5064480;28;20475;-51
2023/10/14 12:30:00;;;;;;;14.88;2.17;;;16.80;49.00;;;;;;5061826;28;20056;-55
2023/10/14 12:32:30;;;;;;;11.80;2.42;;;16.80;49.80;;;;;;5062379;28;20048;-52
2023/10/14 12:34:59;;;;;;;11.30;2.22;;;16.80;50.10;;;;;;5064046;28;20060;-57
2023/10/14 12:37:28;;;;;;;10.68;1.80;;;16.80;49.80;;;;;;5064360;28;20081;-48
2023/10/14 12:40:04;;;;;;;13.45;2.63;;;16.80;50.20;;;;;;5063475;28;20056;-53
2023/10/14 12:42:46;;;;;;;10.98;1.90;;;16.80;49.90;;;;;;5065033;28;20052;-61
2023/10/14 12:45:15;;;;;;;8.10;2.10;;;16.80;48.80;;;;;;5064610;28;20047;-59
2023/10/14 12:47:46;;;;;;;10.20;2.78;;;16.70;49.10;;;;;;5063867;28;20048;-57
2023/10/14 12:50:15;;;;;;;9.65;2.20;;;16.70;48.70;;;;;;5063690;28;20052;-55
2023/10/14 12:52:45;;;;;;;8.57;2.40;;;16.70;48.70;;;;;;5063304;28;20049;-58
2023/10/14 12:55:19;;;;;;;10.25;1.70;;;16.60;47.60;;;;;;5063893;28;20136;-57
2023/10/14 12:57:47;;;;;;;10.25;1.83;;;16.50;47.50;;;;;;5064986;28;20048;-57
2023/10/14 13:00:19;;;;;;;11.23;2.00;;;16.50;47.00;;;;;;5062822;28;20528;-57
2023/10/14 13:02:47;;;;;;;6.75;1.45;;;16.40;46.70;;;;;;5063326;28;20052;-59
2023/10/14 13:05:18;;;;;;;13.02;2.15;;;16.40;47.30;;;;;;5062868;28;20063;-50
2023/10/14 13:07:47;;;;;;;8.63;1.88;;;16.40;47.50;;;;;;5065034;28;20416;-58
2023/10/14 13:10:18;;;;;;;13.40;2.28;;;16.40;47.90;;;;;;5063583;28;20048;-53